sensor_id;sensor_type;location;lat;lon;timestamp;noise_LAeq;noise_LA_min;noise_LA_max;noise_LA01;noise_LA95
46749;Laerm;33775;47.992;11.864;2024-03-08T00:02:14;36.67;30.89;39.92;;
46749;Laerm;33775;47.992;11.864;2024-03-08T00:04:40;36.64;31.68;39.70;;
46749;Laerm;33775;47.992;11.864;2024-03-08T00:07:05;36.64;29.92;39.34;;
46749;Laerm;33775;47.992;11.864;2024-03-08T00:09:31;36.64;31.68;39.46;;
46749;Laerm;33775;47.992;11.864;2024-03-08T00:11:56;36.59;31.68;39.58;;
46749;Laerm;33775;47.992;11.864;2024-03-08T00:14:22;36.57;29.92;39.21;;
46749;Laerm;33775;47.992;11.864;2024-03-08T00:16:47;36.57;30.89;39.58;;
46749;Laerm;33775;47.992;11.864;2024-03-08T00:19:13;36.57;28.67;39.21;;
46749;Laerm;33775;47.992;11.864;2024-03-08T00:21:38;36.62;30.89;39.81;;
46749;Laerm;33775;47.992;11.864;2024-03-08T00:24:03;36.65;31.68;39.46;;
46749;Laerm;33775;47.992;11.864;2024-03-08T00:26:29;36.72;31.68;39.46;;
46749;Laerm;33775;47.992;11.864;2024-03-08T00:28:54;36.70;30.89;39.58;;
46749;Laerm;33775;47.992;11.864;2024-03-08T00:31:20;36.68;31.68;39.34;;
46749;Laerm;33775;47.992;11.864;2024-03-08T00:33:45;36.68;31.68;39.58;;
46749;Laerm;33775;47.992;11.864;2024-03-08T00:36:10;36.69;30.89;39.58;;
46749;Laerm;33775;47.992;11.864;2024-03-08T00:38:35;36.69;30.89;39.34;;
46749;Laerm;33775;47.992;11.864;2024-03-08T00:41:01;36.70;31.68;39.34;;
46749;Laerm;33775;47.992;11.864;2024-03-08T00:43:27;36.68;31.68;39.34;;
46749;Laerm;33775;47.992;11.864;2024-03-08T00:45:52;36.69;32.00;39.70;;
46749;Laerm;33775;47.992;11.864;2024-03-08T00:48:17;36.69;28.67;39.21;;
46749;Laerm;33775;47.992;11.864;2024-03-08T00:50:43;36.70;32.00;39.34;;
46749;Laerm;33775;47.992;11.864;2024-03-08T00:53:10;36.74;30.89;40.03;;
46749;Laerm;33775;47.992;11.864;2024-03-08T00:55:36;36.78;30.89;39.58;;
46749;Laerm;33775;47.992;11.864;2024-03-08T00:58:01;36.75;31.68;39.58;;
46749;Laerm;33775;47.992;11.864;2024-03-08T01:00:26;36.75;32.35;39.58;;
46749;Laerm;33775;47.992;11.864;2024-03-08T01:02:52;36.76;31.68;39.70;;
46749;Laerm;33775;47.992;11.864;2024-03-08T01:05:18;36.76;32.35;39.34;;
46749;Laerm;33775;47.992;11.864;2024-03-08T01:07:44;36.74;31.68;39.70;;
46749;Laerm;33775;47.992;11.864;2024-03-08T01:10:11;36.76;31.68;39.81;;
46749;Laerm;33775;47.992;11.864;2024-03-08T01:12:36;36.76;30.89;39.70;;
46749;Laerm;33775;47.992;11.864;2024-03-08T01:15:02;36.73;29.92;39.92;;
46749;Laerm;33775;47.992;11.864;2024-03-08T01:17:27;36.73;31.68;39.34;;
46749;Laerm;33775;47.992;11.864;2024-03-08T01:19:52;36.70;29.92;39.46;;
46749;Laerm;33775;47.992;11.864;2024-03-08T01:22:18;36.67;32.35;39.70;;
46749;Laerm;33775;47.992;11.864;2024-03-08T01:24:43;36.66;30.89;39.58;;
46749;Laerm;33775;47.992;11.864;2024-03-08T01:27:09;36.71;29.92;39.81;;
46749;Laerm;33775;47.992;11.864;2024-03-08T01:29:34;36.76;31.68;39.46;;
46749;Laerm;33775;47.992;11.864;2024-03-08T01:31:59;36.76;30.89;39.70;;
46749;Laerm;33775;47.992;11.864;2024-03-08T01:34:26;36.79;32.35;40.43;;
46749;Laerm;33775;47.992;11.864;2024-03-08T01:36:53;36.77;31.68;39.70;;
46749;Laerm;33775;47.992;11.864;2024-03-08T01:39:18;36.76;32.35;39.34;;
46749;Laerm;33775;47.992;11.864;2024-03-08T01:41:44;36.79;30.89;39.34;;
46749;Laerm;33775;47.992;11.864;2024-03-08T01:44:09;36.79;30.89;39.81;;
46749;Laerm;33775;47.992;11.864;2024-03-08T01:46:34;36.79;30.89;39.46;;
46749;Laerm;33775;47.992;11.864;2024-03-08T01:49:00;36.73;30.89;39.70;;
46749;Laerm;33775;47.992;11.864;2024-03-08T01:51:28;36.71;31.68;39.21;;
46749;Laerm;33775;47.992;11.864;2024-03-08T01:53:53;36.71;31.68;39.70;;
46749;Laerm;33775;47.992;11.864;2024-03-08T01:56:21;36.67;31.68;40.13;;
46749;Laerm;33775;47.992;11.864;2024-03-08T01:58:46;36.65;31.68;39.46;;
46749;Laerm;33775;47.992;11.864;2024-03-08T02:01:12;36.68;30.89;39.81;;
46749;Laerm;33775;47.992;11.864;2024-03-08T02:03:39;36.68;29.92;39.81;;
46749;Laerm;33775;47.992;11.864;2024-03-08T02:06:05;36.68;31.68;39.46;;
46749;Laerm;33775;47.992;11.864;2024-03-08T02:08:33;36.69;31.68;39.58;;
46749;Laerm;33775;47.992;11.864;2024-03-08T02:10:59;36.71;31.68;39.57;;
46749;Laerm;33775;47.992;11.864;2024-03-08T02:13:25;36.72;31.68;39.70;;
46749;Laerm;33775;47.992;11.864;2024-03-08T02:18:15;36.68;32.35;39.58;;
46749;Laerm;33775;47.992;11.864;2024-03-08T02:20:42;36.69;31.68;39.58;;
46749;Laerm;33775;47.992;11.864;2024-03-08T02:23:07;36.67;31.68;39.81;;
46749;Laerm;33775;47.992;11.864;2024-03-08T02:25:33;36.66;30.89;39.58;;
46749;Laerm;33775;47.992;11.864;2024-03-08T02:27:58;36.69;31.68;39.70;;
46749;Laerm;33775;47.992;11.864;2024-03-08T02:30:23;36.68;30.89;39.46;;
46749;Laerm;33775;47.992;11.864;2024-03-08T02:32:48;36.60;28.67;39.58;;
46749;Laerm;33775;47.992;11.864;2024-03-08T02:35:14;36.55;30.89;40.03;;
46749;Laerm;33775;47.992;11.864;2024-03-08T02:37:39;36.51;30.89;39.21;;
46749;Laerm;33775;47.992;11.864;2024-03-08T02:40:05;36.49;31.68;39.58;;
46749;Laerm;33775;47.992;11.864;2024-03-08T02:42:30;36.49;30.89;39.34;;
46749;Laerm;33775;47.992;11.864;2024-03-08T02:44:55;36.42;26.91;39.70;;
46749;Laerm;33775;47.992;11.864;2024-03-08T02:47:20;36.42;29.92;39.46;;
46749;Laerm;33775;47.992;11.864;2024-03-08T02:49:46;36.39;29.92;39.46;;
46749;Laerm;33775;47.992;11.864;2024-03-08T02:52:11;36.32;26.91;39.34;;
46749;Laerm;33775;47.992;11.864;2024-03-08T02:54:36;36.33;26.91;39.92;;
46749;Laerm;33775;47.992;11.864;2024-03-08T02:57:01;36.28;30.89;39.21;;
46749;Laerm;33775;47.992;11.864;2024-03-08T02:59:27;36.25;29.92;39.34;;
46749;Laerm;33775;47.992;11.864;2024-03-08T03:01:52;36.22;30.54;39.34;;
46749;Laerm;33775;47.992;11.864;2024-03-08T03:04:17;36.21;28.67;39.46;;
46749;Laerm;33775;47.992;11.864;2024-03-08T03:06:43;36.16;28.67;39.08;;
46749;Laerm;33775;47.992;11.864;2024-03-08T03:09:08;36.14;29.92;39.58;;
46749;Laerm;33775;47.992;11.864;2024-03-08T03:11:35;36.14;26.91;39.58;;
46749;Laerm;33775;47.992;11.864;2024-03-08T03:14:00;36.08;29.92;39.08;;
46749;Laerm;33775;47.992;11.864;2024-03-08T03:16:26;36.09;28.67;39.92;;
46749;Laerm;33775;47.992;11.864;2024-03-08T03:18:51;36.08;29.92;39.70;;
46749;Laerm;33775;47.992;11.864;2024-03-08T03:21:16;36.07;28.67;39.08;;
46749;Laerm;33775;47.992;11.864;2024-03-08T03:23:42;36.06;28.67;39.58;;
46749;Laerm;33775;47.992;11.864;2024-03-08T03:26:08;36.06;28.67;39.21;;
46749;Laerm;33775;47.992;11.864;2024-03-08T03:28:33;36.02;29.92;39.34;;
46749;Laerm;33775;47.992;11.864;2024-03-08T03:30:59;36.04;23.90;39.08;;
46749;Laerm;33775;47.992;11.864;2024-03-08T03:33:24;36.03;28.32;39.46;;
46749;Laerm;33775;47.992;11.864;2024-03-08T03:35:49;35.98;28.67;39.21;;
46749;Laerm;33775;47.992;11.864;2024-03-08T03:38:17;35.98;26.91;39.08;;
46749;Laerm;33775;47.992;11.864;2024-03-08T03:40:42;35.98;26.91;39.21;;
46749;Laerm;33775;47.992;11.864;2024-03-08T03:43:07;35.97;26.91;38.95;;
46749;Laerm;33775;47.992;11.864;2024-03-08T03:45:34;35.95;26.91;39.46;;
46749;Laerm;33775;47.992;11.864;2024-03-08T03:48:03;35.94;28.32;39.08;;
46749;Laerm;33775;47.992;11.864;2024-03-08T03:50:28;35.96;28.67;39.34;;
46749;Laerm;33775;47.992;11.864;2024-03-08T03:52:53;35.94;23.90;39.08;;
46749;Laerm;33775;47.992;11.864;2024-03-08T03:55:19;35.89;28.67;39.08;;
46749;Laerm;33775;47.992;11.864;2024-03-08T03:57:45;35.90;26.91;39.21;;
46749;Laerm;33775;47.992;11.864;2024-03-08T04:00:11;35.90;28.67;39.08;;
46749;Laerm;33775;47.992;11.864;2024-03-08T04:02:39;35.90;28.67;38.95;;
46749;Laerm;33775;47.992;11.864;2024-03-08T04:05:06;35.90;23.90;39.34;;
46749;Laerm;33775;47.992;11.864;2024-03-08T04:07:31;35.90;26.91;39.21;;
46749;Laerm;33775;47.992;11.864;2024-03-08T04:09:57;35.89;26.91;39.46;;
46749;Laerm;33775;47.992;11.864;2024-03-08T04:12:22;35.91;28.67;39.46;;
46749;Laerm;33775;47.992;11.864;2024-03-08T04:14:48;35.91;5.00;39.58;;
46749;Laerm;33775;47.992;11.864;2024-03-08T04:17:13;35.90;29.92;39.46;;
46749;Laerm;33775;47.992;11.864;2024-03-08T04:19:39;35.90;28.67;39.08;;
46749;Laerm;33775;47.992;11.864;2024-03-08T04:22:05;35.89;23.90;38.95;;
46749;Laerm;33775;47.992;11.864;2024-03-08T04:24:30;35.85;28.67;39.21;;
46749;Laerm;33775;47.992;11.864;2024-03-08T04:26:56;35.91;23.90;39.34;;
46749;Laerm;33775;47.992;11.864;2024-03-08T04:29:21;35.88;26.91;39.34;;
46749;Laerm;33775;47.992;11.864;2024-03-08T04:31:47;35.87;28.67;39.08;;
46749;Laerm;33775;47.992;11.864;2024-03-08T04:34:12;35.92;26.91;39.08;;
46749;Laerm;33775;47.992;11.864;2024-03-08T04:36:38;35.88;28.67;39.34;;
46749;Laerm;33775;47.992;11.864;2024-03-08T04:39:03;35.91;26.91;39.34;;
46749;Laerm;33775;47.992;11.864;2024-03-08T04:41:28;35.92;26.91;39.08;;
46749;Laerm;33775;47.992;11.864;2024-03-08T04:43:55;35.93;26.91;39.21;;
46749;Laerm;33775;47.992;11.864;2024-03-08T04:46:22;35.90;26.91;39.08;;
46749;Laerm;33775;47.992;11.864;2024-03-08T04:48:48;35.89;23.90;39.08;;
46749;Laerm;33775;47.992;11.864;2024-03-08T04:51:13;35.91;28.67;39.46;;
46749;Laerm;33775;47.992;11.864;2024-03-08T04:53:38;35.92;26.91;39.08;;
46749;Laerm;33775;47.992;11.864;2024-03-08T04:56:03;35.87;23.90;38.95;;
46749;Laerm;33775;47.992;11.864;2024-03-08T04:58:32;35.90;26.91;38.99;;
46749;Laerm;33775;47.992;11.864;2024-03-08T05:00:59;35.94;23.90;39.34;;
46749;Laerm;33775;47.992;11.864;2024-03-08T05:03:24;35.90;28.67;39.08;;
46749;Laerm;33775;47.992;11.864;2024-03-08T05:05:51;35.88;29.92;39.21;;
46749;Laerm;33775;47.992;11.864;2024-03-08T05:08:17;35.89;26.91;38.95;;
46749;Laerm;33775;47.992;11.864;2024-03-08T05:10:43;35.86;28.67;39.46;;
46749;Laerm;33775;47.992;11.864;2024-03-08T05:13:09;35.89;26.91;39.08;;
46749;Laerm;33775;47.992;11.864;2024-03-08T05:15:34;35.87;26.91;39.21;;
46749;Laerm;33775;47.992;11.864;2024-03-08T05:18:00;35.89;26.91;39.46;;
46749;Laerm;33775;47.992;11.864;2024-03-08T05:20:25;35.84;28.67;39.34;;
46749;Laerm;33775;47.992;11.864;2024-03-08T05:22:51;35.85;26.91;39.08;;
46749;Laerm;33775;47.992;11.864;2024-03-08T05:25:16;35.84;26.91;39.21;;
46749;Laerm;33775;47.992;11.864;2024-03-08T05:27:42;35.85;28.32;39.34;;
46749;Laerm;33775;47.992;11.864;2024-03-08T05:30:08;35.83;23.90;39.08;;
46749;Laerm;33775;47.992;11.864;2024-03-08T05:32:39;35.81;28.67;39.46;;
46749;Laerm;33775;47.992;11.864;2024-03-08T05:35:04;35.84;26.91;39.08;;
46749;Laerm;33775;47.992;11.864;2024-03-08T05:37:32;35.78;23.90;39.34;;
46749;Laerm;33775;47.992;11.864;2024-03-08T05:39:57;35.82;26.91;39.21;;
46749;Laerm;33775;47.992;11.864;2024-03-08T05:42:23;35.82;28.67;39.08;;
46749;Laerm;33775;47.992;11.864;2024-03-08T05:44:48;35.82;26.91;39.46;;
46749;Laerm;33775;47.992;11.864;2024-03-08T05:47:14;35.81;5.00;39.08;;
46749;Laerm;33775;47.992;11.864;2024-03-08T05:49:41;35.83;28.67;39.34;;
46749;Laerm;33775;47.992;11.864;2024-03-08T05:52:07;35.81;26.91;39.21;;
46749;Laerm;33775;47.992;11.864;2024-03-08T05:54:32;35.81;26.91;39.21;;
46749;Laerm;33775;47.992;11.864;2024-03-08T05:56:58;35.81;28.67;39.34;;
46749;Laerm;33775;47.992;11.864;2024-03-08T05:59:23;35.81;5.00;39.34;;
46749;Laerm;33775;47.992;11.864;2024-03-08T06:01:48;35.80;23.90;39.08;;
46749;Laerm;33775;47.992;11.864;2024-03-08T06:04:14;35.80;28.67;39.34;;
46749;Laerm;33775;47.992;11.864;2024-03-08T06:06:39;35.82;26.91;38.95;;
46749;Laerm;33775;47.992;11.864;2024-03-08T06:09:05;35.83;26.91;39.58;;
46749;Laerm;33775;47.992;11.864;2024-03-08T06:11:39;35.82;26.91;39.21;;
46749;Laerm;33775;47.992;11.864;2024-03-08T06:14:05;35.83;23.90;38.95;;
46749;Laerm;33775;47.992;11.864;2024-03-08T06:16:31;35.83;26.91;39.34;;
46749;Laerm;33775;47.992;11.864;2024-03-08T06:18:56;35.85;26.91;39.58;;
46749;Laerm;33775;47.992;11.864;2024-03-08T06:21:22;35.86;23.90;39.46;;
46749;Laerm;33775;47.992;11.864;2024-03-08T06:23:47;35.87;26.56;39.46;;
46749;Laerm;33775;47.992;11.864;2024-03-08T06:26:13;35.93;26.91;39.46;;
46749;Laerm;33775;47.992;11.864;2024-03-08T06:28:38;35.95;28.67;39.21;;
46749;Laerm;33775;47.992;11.864;2024-03-08T06:31:03;35.98;28.67;39.21;;
46749;Laerm;33775;47.992;11.864;2024-03-08T06:33:29;36.06;26.91;39.46;;
46749;Laerm;33775;47.992;11.864;2024-03-08T06:35:54;36.12;28.67;39.58;;
46749;Laerm;33775;47.992;11.864;2024-03-08T06:38:22;36.19;28.67;39.21;;
46749;Laerm;33775;47.992;11.864;2024-03-08T06:40:48;36.19;26.91;39.58;;
46749;Laerm;33775;47.992;11.864;2024-03-08T06:43:13;36.26;28.67;39.08;;
46749;Laerm;33775;47.992;11.864;2024-03-08T06:45:41;36.33;26.56;39.08;;
46749;Laerm;33775;47.992;11.864;2024-03-08T06:48:06;36.36;29.92;39.70;;
46749;Laerm;33775;47.992;11.864;2024-03-08T06:50:34;36.44;28.67;39.21;;
46749;Laerm;33775;47.992;11.864;2024-03-08T06:53:01;36.51;30.89;39.21;;
46749;Laerm;33775;47.992;11.864;2024-03-08T06:55:26;36.54;29.92;39.21;;
46749;Laerm;33775;47.992;11.864;2024-03-08T06:57:51;36.63;31.68;39.46;;
46749;Laerm;33775;47.992;11.864;2024-03-08T07:00:17;36.72;30.89;40.13;;
46749;Laerm;33775;47.992;11.864;2024-03-08T07:02:46;36.77;31.68;39.92;;
46749;Laerm;33775;47.992;11.864;2024-03-08T07:05:14;36.84;32.35;39.46;;
46749;Laerm;33775;47.992;11.864;2024-03-08T07:07:39;36.89;30.89;39.81;;
46749;Laerm;33775;47.992;11.864;2024-03-08T07:10:06;36.93;31.68;39.92;;
46749;Laerm;33775;47.992;11.864;2024-03-08T07:12:35;36.96;30.89;39.46;;
46749;Laerm;33775;47.992;11.864;2024-03-08T07:15:01;37.00;32.93;39.92;;
46749;Laerm;33775;47.992;11.864;2024-03-08T07:17:26;37.03;32.35;40.03;;
46749;Laerm;33775;47.992;11.864;2024-03-08T07:19:51;37.09;31.68;39.92;;
46749;Laerm;33775;47.992;11.864;2024-03-08T07:22:17;37.14;32.93;40.33;;
46749;Laerm;33775;47.992;11.864;2024-03-08T07:24:42;37.16;32.35;39.70;;
46749;Laerm;33775;47.992;11.864;2024-03-08T07:27:19;37.21;32.93;39.92;;
46749;Laerm;33775;47.992;11.864;2024-03-08T07:29:44;37.23;31.68;40.13;;
46749;Laerm;33775;47.992;11.864;2024-03-08T07:32:11;37.26;32.93;39.81;;
46749;Laerm;33775;47.992;11.864;2024-03-08T07:34:49;37.27;32.58;40.03;;
46749;Laerm;33775;47.992;11.864;2024-03-08T07:37:17;37.27;31.68;39.92;;
46749;Laerm;33775;47.992;11.864;2024-03-08T07:39:42;37.19;31.68;40.13;;
46749;Laerm;33775;47.992;11.864;2024-03-08T07:42:08;37.02;30.89;40.43;;
46749;Laerm;33775;47.992;11.864;2024-03-08T07:44:33;36.96;30.89;40.23;;
46749;Laerm;33775;47.992;11.864;2024-03-08T07:46:59;36.99;31.68;39.81;;
46749;Laerm;33775;47.992;11.864;2024-03-08T07:49:24;37.06;32.00;39.81;;
46749;Laerm;33775;47.992;11.864;2024-03-08T07:51:49;37.12;32.93;39.81;;
46749;Laerm;33775;47.992;11.864;2024-03-08T07:54:15;37.12;32.93;40.13;;
46749;Laerm;33775;47.992;11.864;2024-03-08T07:56:40;37.12;31.68;39.89;;
46749;Laerm;33775;47.992;11.864;2024-03-08T07:59:07;37.17;32.93;40.33;;
46749;Laerm;33775;47.992;11.864;2024-03-08T08:01:32;37.20;33.44;40.33;;
46749;Laerm;33775;47.992;11.864;2024-03-08T08:03:58;37.19;32.35;39.81;;
46749;Laerm;33775;47.992;11.864;2024-03-08T08:06:24;37.19;32.35;39.81;;
46749;Laerm;33775;47.992;11.864;2024-03-08T08:08:50;37.21;32.35;40.03;;
46749;Laerm;33775;47.992;11.864;2024-03-08T08:11:15;37.24;32.93;40.33;;
46749;Laerm;33775;47.992;11.864;2024-03-08T08:13:41;37.22;31.68;40.33;;
46749;Laerm;33775;47.992;11.864;2024-03-08T08:16:08;37.23;31.68;39.81;;
46749;Laerm;33775;47.992;11.864;2024-03-08T08:18:33;37.26;31.68;40.13;;
46749;Laerm;33775;47.992;11.864;2024-03-08T08:21:00;37.25;32.93;40.23;;
46749;Laerm;33775;47.992;11.864;2024-03-08T08:23:25;37.22;32.35;40.03;;
46749;Laerm;33775;47.992;11.864;2024-03-08T08:25:50;37.21;32.93;40.23;;
46749;Laerm;33775;47.992;11.864;2024-03-08T08:28:16;37.21;32.35;40.03;;
46749;Laerm;33775;47.992;11.864;2024-03-08T08:30:42;37.23;32.35;40.03;;
46749;Laerm;33775;47.992;11.864;2024-03-08T08:33:08;37.21;32.93;40.23;;
46749;Laerm;33775;47.992;11.864;2024-03-08T08:35:33;37.22;31.68;40.33;;
46749;Laerm;33775;47.992;11.864;2024-03-08T08:37:58;37.19;32.35;40.13;;
46749;Laerm;33775;47.992;11.864;2024-03-08T08:40:24;37.16;32.35;40.18;;
46749;Laerm;33775;47.992;11.864;2024-03-08T08:42:50;37.11;31.33;40.23;;
46749;Laerm;33775;47.992;11.864;2024-03-08T08:45:15;37.13;32.93;39.99;;
46749;Laerm;33775;47.992;11.864;2024-03-08T08:47:42;37.10;32.35;39.70;;
46749;Laerm;33775;47.992;11.864;2024-03-08T08:50:08;37.07;32.35;40.13;;
46749;Laerm;33775;47.992;11.864;2024-03-08T08:52:36;37.08;32.35;40.23;;
46749;Laerm;33775;47.992;11.864;2024-03-08T08:55:01;37.05;30.89;39.92;;
46749;Laerm;33775;47.992;11.864;2024-03-08T08:57:29;37.04;32.35;39.81;;
46749;Laerm;33775;47.992;11.864;2024-03-08T08:59:55;37.03;32.93;40.23;;
46749;Laerm;33775;47.992;11.864;2024-03-08T09:02:21;37.05;31.68;39.81;;
46749;Laerm;33775;47.992;11.864;2024-03-08T09:04:46;37.00;32.35;39.70;;
46749;Laerm;33775;47.992;11.864;2024-03-08T09:07:13;36.98;32.93;39.81;;
46749;Laerm;33775;47.992;11.864;2024-03-08T09:09:38;36.96;30.89;39.70;;
46749;Laerm;33775;47.992;11.864;2024-03-08T09:12:04;36.98;31.68;40.13;;
46749;Laerm;33775;47.992;11.864;2024-03-08T09:14:29;36.96;31.68;39.70;;
46749;Laerm;33775;47.992;11.864;2024-03-08T09:16:54;36.97;31.68;39.81;;
46749;Laerm;33775;47.992;11.864;2024-03-08T09:19:20;36.97;31.68;39.92;;
46749;Laerm;33775;47.992;11.864;2024-03-08T09:21:45;36.98;32.35;39.81;;
46749;Laerm;33775;47.992;11.864;2024-03-08T09:24:11;36.94;31.68;40.03;;
46749;Laerm;33775;47.992;11.864;2024-03-08T09:26:37;36.95;32.35;39.92;;
46749;Laerm;33775;47.992;11.864;2024-03-08T09:29:02;36.96;32.35;39.81;;
46749;Laerm;33775;47.992;11.864;2024-03-08T09:31:28;36.95;32.00;39.92;;
46749;Laerm;33775;47.992;11.864;2024-03-08T09:33:53;36.96;30.89;39.92;;
46749;Laerm;33775;47.992;11.864;2024-03-08T09:36:18;36.97;31.68;39.70;;
46749;Laerm;33775;47.992;11.864;2024-03-08T09:38:44;36.99;32.35;39.58;;
46749;Laerm;33775;47.992;11.864;2024-03-08T09:41:09;36.99;32.35;39.81;;
46749;Laerm;33775;47.992;11.864;2024-03-08T09:43:35;36.98;31.68;40.13;;
46749;Laerm;33775;47.992;11.864;2024-03-08T09:46:01;36.97;32.35;39.81;;
46749;Laerm;33775;47.992;11.864;2024-03-08T09:48:27;36.98;31.68;39.70;;
46749;Laerm;33775;47.992;11.864;2024-03-08T09:50:54;36.98;31.68;39.81;;
46749;Laerm;33775;47.992;11.864;2024-03-08T09:53:20;36.99;32.35;39.70;;
46749;Laerm;33775;47.992;11.864;2024-03-08T09:55:47;36.96;31.68;39.70;;
46749;Laerm;33775;47.992;11.864;2024-03-08T09:58:14;36.98;29.92;40.08;;
46749;Laerm;33775;47.992;11.864;2024-03-08T10:00:58;36.98;30.89;39.70;;
46749;Laerm;33775;47.992;11.864;2024-03-08T10:03:23;37.00;32.35;39.70;;
46749;Laerm;33775;47.992;11.864;2024-03-08T10:05:48;36.98;32.93;39.92;;
46749;Laerm;33775;47.992;11.864;2024-03-08T10:08:14;37.01;32.93;40.03;;
46749;Laerm;33775;47.992;11.864;2024-03-08T10:10:39;37.00;32.35;39.70;;
46749;Laerm;33775;47.992;11.864;2024-03-08T10:13:05;37.00;32.00;39.92;;
46749;Laerm;33775;47.992;11.864;2024-03-08T10:15:31;36.99;33.44;40.03;;
46749;Laerm;33775;47.992;11.864;2024-03-08T10:17:58;37.00;31.68;39.58;;
46749;Laerm;33775;47.992;11.864;2024-03-08T10:20:23;37.04;31.68;40.03;;
46749;Laerm;33775;47.992;11.864;2024-03-08T10:22:49;37.04;32.35;39.81;;
46749;Laerm;33775;47.992;11.864;2024-03-08T10:25:14;37.05;31.68;39.92;;
46749;Laerm;33775;47.992;11.864;2024-03-08T10:27:39;37.07;32.35;39.92;;
46749;Laerm;33775;47.992;11.864;2024-03-08T10:30:06;37.09;32.93;39.81;;
46749;Laerm;33775;47.992;11.864;2024-03-08T10:32:35;37.04;32.35;39.70;;
46749;Laerm;33775;47.992;11.864;2024-03-08T10:35:00;37.14;31.68;40.03;;
46749;Laerm;33775;47.992;11.864;2024-03-08T10:37:25;37.20;32.93;40.13;;
46749;Laerm;33775;47.992;11.864;2024-03-08T10:40:02;37.27;31.68;40.33;;
46749;Laerm;33775;47.992;11.864;2024-03-08T10:42:41;37.22;32.93;39.70;;
46749;Laerm;33775;47.992;11.864;2024-03-08T10:45:50;37.22;32.93;39.81;;
46749;Laerm;33775;47.992;11.864;2024-03-08T10:50:35;37.21;32.35;39.92;;
46749;Laerm;33775;47.992;11.864;2024-03-08T10:53:00;37.24;31.68;40.03;;
46749;Laerm;33775;47.992;11.864;2024-03-08T10:55:26;37.21;32.35;39.81;;
46749;Laerm;33775;47.992;11.864;2024-03-08T10:57:53;37.21;33.44;39.70;;
46749;Laerm;33775;47.992;11.864;2024-03-08T11:00:19;37.31;30.89;39.70;;
46749;Laerm;33775;47.992;11.864;2024-03-08T11:02:51;37.39;32.93;40.23;;
46749;Laerm;33775;47.992;11.864;2024-03-08T11:05:31;37.35;32.93;40.53;;
46749;Laerm;33775;47.992;11.864;2024-03-08T11:08:00;37.29;32.93;39.92;;
46749;Laerm;33775;47.992;11.864;2024-03-08T11:10:25;37.29;32.35;40.43;;
46749;Laerm;33775;47.992;11.864;2024-03-08T11:12:51;37.37;33.44;40.13;;
46749;Laerm;33775;47.992;11.864;2024-03-08T11:15:17;37.39;32.93;40.13;;
46749;Laerm;33775;47.992;11.864;2024-03-08T11:17:45;37.38;30.89;39.92;;
46749;Laerm;33775;47.992;11.864;2024-03-08T11:20:12;37.35;32.93;39.92;;
46749;Laerm;33775;47.992;11.864;2024-03-08T11:22:41;37.42;32.93;40.13;;
46749;Laerm;33775;47.992;11.864;2024-03-08T11:25:10;37.46;33.90;40.33;;
46749;Laerm;33775;47.992;11.864;2024-03-08T11:28:06;37.46;32.35;40.33;;
46749;Laerm;33775;47.992;11.864;2024-03-08T11:30:32;37.46;32.35;40.13;;
46749;Laerm;33775;47.992;11.864;2024-03-08T11:32:57;37.46;32.93;40.03;;
46749;Laerm;33775;47.992;11.864;2024-03-08T11:35:26;37.49;32.35;40.43;;
46749;Laerm;33775;47.992;11.864;2024-03-08T11:37:52;37.49;32.93;40.33;;
46749;Laerm;33775;47.992;11.864;2024-03-08T11:40:17;37.46;32.93;40.33;;
46749;Laerm;33775;47.992;11.864;2024-03-08T11:42:47;37.50;32.93;40.33;;
46749;Laerm;33775;47.992;11.864;2024-03-08T11:45:14;37.49;33.44;40.33;;
46749;Laerm;33775;47.992;11.864;2024-03-08T11:47:41;37.47;32.58;39.92;;
46749;Laerm;33775;47.992;11.864;2024-03-08T11:50:07;37.50;32.35;40.03;;
46749;Laerm;33775;47.992;11.864;2024-03-08T11:52:35;37.47;32.35;40.03;;
46749;Laerm;33775;47.992;11.864;2024-03-08T11:55:01;37.47;33.44;40.80;;
46749;Laerm;33775;47.992;11.864;2024-03-08T11:57:26;37.47;32.93;40.13;;
46749;Laerm;33775;47.992;11.864;2024-03-08T11:59:53;37.44;32.93;40.13;;
46749;Laerm;33775;47.992;11.864;2024-03-08T12:02:19;37.48;32.35;40.23;;
46749;Laerm;33775;47.992;11.864;2024-03-08T12:04:44;37.45;32.93;40.23;;
46749;Laerm;33775;47.992;11.864;2024-03-08T12:07:11;37.47;32.35;40.13;;
46749;Laerm;33775;47.992;11.864;2024-03-08T12:09:39;37.46;33.44;40.33;;
46749;Laerm;33775;47.992;11.864;2024-03-08T12:12:06;37.43;32.35;40.13;;
46749;Laerm;33775;47.992;11.864;2024-03-08T12:14:33;37.44;32.93;40.23;;
46749;Laerm;33775;47.992;11.864;2024-03-08T12:16:58;37.43;33.44;40.13;;
46749;Laerm;33775;47.992;11.864;2024-03-08T12:19:23;37.47;32.58;40.33;;
46749;Laerm;33775;47.992;11.864;2024-03-08T12:21:49;37.48;32.35;40.03;;
46749;Laerm;33775;47.992;11.864;2024-03-08T12:24:15;37.42;32.93;40.33;;
46749;Laerm;33775;47.992;11.864;2024-03-08T12:26:44;37.44;32.35;40.13;;
46749;Laerm;33775;47.992;11.864;2024-03-08T12:29:16;37.33;33.44;40.53;;
46749;Laerm;33775;47.992;11.864;2024-03-08T12:31:43;37.28;31.68;39.92;;
46749;Laerm;33775;47.992;11.864;2024-03-08T12:34:08;37.25;32.93;40.89;;
46749;Laerm;33775;47.992;11.864;2024-03-08T12:36:35;37.24;31.68;40.23;;
46749;Laerm;33775;47.992;11.864;2024-03-08T12:39:01;37.25;31.68;40.03;;
46749;Laerm;33775;47.992;11.864;2024-03-08T12:41:26;37.25;32.35;40.03;;
46749;Laerm;33775;47.992;11.864;2024-03-08T12:43:52;37.26;32.35;40.33;;
46749;Laerm;33775;47.992;11.864;2024-03-08T12:46:17;37.28;32.35;39.81;;
46749;Laerm;33775;47.992;11.864;2024-03-08T12:48:45;37.32;32.35;41.14;;
46749;Laerm;33775;47.992;11.864;2024-03-08T12:51:12;37.37;32.35;39.92;;
46749;Laerm;33775;47.992;11.864;2024-03-08T12:53:37;37.37;31.68;40.53;;
46749;Laerm;33775;47.992;11.864;2024-03-08T12:56:05;37.40;33.44;39.92;;
46749;Laerm;33775;47.992;11.864;2024-03-08T12:58:33;37.37;33.44;40.62;;
46749;Laerm;33775;47.992;11.864;2024-03-08T13:00:58;37.32;32.35;39.92;;
46749;Laerm;33775;47.992;11.864;2024-03-08T13:03:24;37.38;32.35;40.03;;
46749;Laerm;33775;47.992;11.864;2024-03-08T13:05:49;37.38;32.35;40.33;;
46749;Laerm;33775;47.992;11.864;2024-03-08T13:08:14;37.37;32.35;40.18;;
46749;Laerm;33775;47.992;11.864;2024-03-08T13:10:41;37.38;32.93;40.13;;
46749;Laerm;33775;47.992;11.864;2024-03-08T13:13:11;37.38;32.35;40.03;;
46749;Laerm;33775;47.992;11.864;2024-03-08T13:15:42;37.38;32.35;40.33;;
46749;Laerm;33775;47.992;11.864;2024-03-08T13:18:07;37.40;31.68;40.13;;
46749;Laerm;33775;47.992;11.864;2024-03-08T13:20:33;37.38;32.35;40.13;;
46749;Laerm;33775;47.992;11.864;2024-03-08T13:23:02;37.33;32.35;40.03;;
46749;Laerm;33775;47.992;11.864;2024-03-08T13:25:27;37.31;31.68;40.13;;
46749;Laerm;33775;47.992;11.864;2024-03-08T13:27:53;37.26;32.93;39.92;;
46749;Laerm;33775;47.992;11.864;2024-03-08T13:30:22;37.25;28.67;40.13;;
46749;Laerm;33775;47.992;11.864;2024-03-08T13:32:51;37.17;32.93;40.23;;